Flight Track Log - Related Links

Times and Time Zones

All times are in EDT time to prevent confusion due to time zone crossing. See the AKX1696 flight status page for this flight to view local times or setup timezone preferences in your user account.

Time Position Orientation Groundspeed Altitude Reporting Facility
EDT Latitude Longitude Course Direction KTS MPH feet Rate Location/Type
Mon 03:49:00 AM 37.1043 140.1604 240° Southwest  Level Estimated
Mon 03:50:00 AM 37.0631 140.0705 240° Southwest  Level Estimated
Mon 03:51:00 AM 37.0219 139.9807 240° Southwest  Level Estimated
Mon 03:52:00 AM 36.9806 139.8911 240° Southwest  Level Estimated
Mon 03:53:00 AM 36.9392 139.8015 240° Southwest  Level Estimated
Mon 03:54:00 AM 36.8978 139.7120 240° Southwest  Level Estimated
Mon 03:55:00 AM 36.8563 139.6226 240° Southwest  Level Estimated
Mon 03:56:00 AM 36.8147 139.5333 240° Southwest  Level Estimated
Mon 03:57:00 AM 36.7731 139.4440 240° Southwest  Level Estimated
Mon 03:58:00 AM 36.7313 139.3549 240° Southwest  Level Estimated
Mon 03:59:00 AM 36.6896 139.2659 240° Southwest  Level Estimated
Mon 04:00:00 AM 36.6477 139.1770 240° Southwest  Level Estimated
Mon 04:01:00 AM 36.6058 139.0882 240° Southwest  Level Estimated
Mon 04:02:00 AM 36.5639 138.9995 240° Southwest  Level Estimated
Mon 04:03:00 AM 36.5218 138.9108 239° Southwest  Level Estimated
Mon 04:04:00 AM 36.4797 138.8223 239° Southwest  Level Estimated
Mon 04:05:00 AM 36.4375 138.7339 239° Southwest  Level Estimated
Mon 04:06:00 AM 36.3953 138.6455 239° Southwest  Level Estimated
Mon 04:07:00 AM 36.3530 138.5573 239° Southwest  Level Estimated
Mon 04:08:00 AM 36.3106 138.4691 239° Southwest  Level Estimated
Mon 04:09:00 AM 36.2682 138.3811 239° Southwest  Level Estimated
Mon 04:10:00 AM 36.2257 138.2932 239° Southwest  Level Estimated
Mon 04:11:00 AM 36.1832 138.2053 239° Southwest  Level Estimated
Mon 04:12:00 AM 36.1405 138.1175 239° Southwest  Level Estimated
Mon 04:13:00 AM 36.0979 138.0299 239° Southwest  Level Estimated
Mon 04:14:00 AM 36.0551 137.9423 239° Southwest  Level Estimated
Mon 04:15:00 AM 36.0123 137.8548 239° Southwest  Level Estimated
Mon 04:16:00 AM 35.9694 137.7674 239° Southwest  Level Estimated
Mon 04:17:00 AM 35.9265 137.6801 239° Southwest  Level Estimated
Mon 04:18:00 AM 35.8835 137.5930 239° Southwest  Level Estimated
Mon 04:19:00 AM 35.8404 137.5058 239° Southwest  Level Estimated
Mon 04:20:00 AM 35.7973 137.4189 239° Southwest  Level Estimated
Mon 04:21:00 AM 35.7541 137.3319 239° Southwest  Level Estimated
Mon 04:22:00 AM 35.7108 137.2451 238° Southwest  Level Estimated
Mon 04:23:00 AM 35.6675 137.1584 238° Southwest  Level Estimated
Mon 04:24:00 AM 35.6241 137.0718 238° Southwest  Level Estimated
Mon 04:25:00 AM 35.5807 136.9852 238° Southwest  Level Estimated
Mon 04:26:00 AM 35.5372 136.8988 238° Southwest  Level Estimated
Mon 04:27:00 AM 35.4936 136.8125 238° Southwest  Level Estimated
Mon 04:28:00 AM 35.4500 136.7262 238° Southwest  Level Estimated
Mon 04:29:00 AM 35.4063 136.6401 238° Southwest  Level Estimated
Mon 04:30:00 AM 35.3626 136.5540 238° Southwest  Level Estimated
Mon 04:31:00 AM 35.3187 136.4680 238° Southwest  Level Estimated
Mon 04:32:00 AM 35.2749 136.3822 238° Southwest  Level Estimated
Mon 04:33:00 AM 35.2309 136.2964 238° Southwest  Level Estimated
Mon 04:34:00 AM 35.1870 136.2107 238° Southwest  Level Estimated
Mon 04:35:00 AM 35.1429 136.1251 238° Southwest  Level Estimated
Mon 04:36:00 AM 35.0988 136.0396 238° Southwest  Level Estimated
Mon 04:37:00 AM 35.0546 135.9541 238° Southwest  Level Estimated
Mon 04:38:00 AM 35.0104 135.8688 238° Southwest  Level Estimated
Mon 04:39:00 AM 34.9661 135.7836 238° Southwest  Level Estimated
Mon 04:40:00 AM 34.9218 135.6985 238° Southwest  Level Estimated
Mon 04:41:00 AM 34.8773 135.6134 238° Southwest  Level Estimated
Mon 04:42:00 AM 34.8329 135.5285 237° Southwest  Level Estimated
Mon 04:43:00 AM 34.7884 135.4436 237° Southwest  Level Estimated
Mon 04:44:00 AM 34.7855 135.4382 237° Southwest  Level Estimated
Mon 04:45:00 AM 34.7855 135.4382 141° Southeast  Level Estimated
Mon 04:46:00 AM 34.7855 135.4382 141° Southeast  Level Estimated
Mon 04:47:00 AM 34.7855 135.4382 141° Southeast  Level Estimated
Mon 04:48:00 AM 34.7855 135.4382 141° Southeast  Level Estimated
Mon 04:49:00 AM 34.7855 135.4382 141° Southeast  Level Estimated
Mon 04:50:00 AM 34.7855 135.4382 141° Southeast  Level Estimated
Mon 04:51:00 AM 34.7855 135.4382 141° Southeast  Level Estimated
Mon 04:52:00 AM 34.7855 135.4382 141° Southeast  Level Estimated
Mon 04:53:00 AM 34.7855 135.4382 141° Southeast  Level Estimated
Mon 04:54:00 AM 34.7855 135.4382 141° Southeast  Level Estimated

Login

Don't have an account? Register now (free) for customized features, flight alerts, and more!